createdAt,value
2023-05-09T00:20:25.400Z,70.5
2023-05-09T00:30:30.616Z,70.5
2023-05-09T00:40:36.877Z,70.5
2023-05-09T00:50:43.020Z,71
2023-05-09T01:21:01.621Z,71.5
2023-05-09T01:31:07.897Z,71.5
2023-05-09T01:51:20.224Z,72
2023-05-09T02:11:32.617Z,72.5
2023-05-09T02:21:38.826Z,72.5
2023-05-09T02:41:51.263Z,72.5
2023-05-09T02:51:56.437Z,72.5
2023-05-09T03:12:08.846Z,73
2023-05-09T03:22:15.051Z,73
2023-05-09T04:12:45.780Z,73
2023-05-09T04:22:52.069Z,73.5
2023-05-09T04:32:58.210Z,73.5
2023-05-09T04:53:10.546Z,74
2023-05-09T05:23:28.976Z,74
2023-05-09T05:33:34.105Z,71.5
2023-05-09T05:43:40.285Z,71
2023-05-09T05:53:46.395Z,72.5
2023-05-09T06:13:58.703Z,72.5
2023-05-09T06:24:04.893Z,73
2023-05-09T06:34:11.018Z,73.5
2023-05-09T06:44:17.135Z,74
2023-05-09T07:14:35.586Z,73
2023-05-09T07:24:41.717Z,72.5
2023-05-09T07:34:47.876Z,72.5
2023-05-09T07:44:53.018Z,72
2023-05-09T07:54:59.150Z,72.5
2023-05-09T08:15:11.518Z,72
2023-05-09T08:25:17.673Z,71.5
2023-05-09T08:45:29.949Z,72
2023-05-09T08:55:36.101Z,71.5
2023-05-09T09:15:48.496Z,71
2023-05-09T09:36:00.676Z,71
2023-05-09T09:46:06.812Z,70.5
2023-05-09T09:56:11.989Z,70.5
2023-05-09T10:16:24.265Z,71
2023-05-09T10:26:30.603Z,70.5
2023-05-09T10:36:36.672Z,71
2023-05-09T10:46:42.663Z,70.5
2023-05-09T10:56:48.819Z,71
2023-05-09T11:06:55.127Z,71
2023-05-09T11:17:01.149Z,70.5
2023-05-09T11:27:07.224Z,70.5
2023-05-09T11:37:13.542Z,70
2023-05-09T11:47:19.523Z,68.5
2023-05-09T12:17:38.017Z,67.5
2023-05-09T12:27:43.232Z,69
2023-05-09T12:37:49.228Z,71.5
2023-05-09T12:47:55.542Z,72
2023-05-09T12:58:01.603Z,73
2023-05-09T13:58:38.399Z,74
2023-05-09T14:18:49.665Z,73.5
2023-05-09T14:39:01.024Z,73
2023-05-09T14:59:12.282Z,75
2023-05-09T15:39:35.879Z,76.5
2023-05-09T15:49:41.043Z,75.5
2023-05-09T15:59:47.184Z,76
2023-05-09T16:30:05.606Z,77.5
2023-05-09T16:40:11.740Z,77.5
2023-05-09T16:50:17.888Z,78
2023-05-09T17:20:36.310Z,77.5
2023-05-09T17:30:42.445Z,78
2023-05-09T17:50:54.738Z,78.5
2023-05-09T18:00:59.889Z,79
2023-05-09T18:31:18.311Z,79
2023-05-09T18:41:24.572Z,79
2023-05-09T18:51:30.585Z,79
2023-05-09T19:01:36.807Z,79
2023-05-09T19:21:49.057Z,79.5
2023-05-09T19:31:55.384Z,80
2023-05-09T19:42:01.443Z,80
2023-05-09T19:52:07.749Z,79.5
2023-05-09T20:02:13.912Z,80.5
2023-05-09T20:12:19.055Z,80.5
2023-05-09T20:42:37.646Z,81
2023-05-09T20:52:43.843Z,81
2023-05-09T21:02:50.125Z,81
2023-05-09T21:23:02.446Z,81.5
2023-05-09T21:33:08.651Z,80
2023-05-09T21:43:14.825Z,81
2023-05-09T21:53:21.022Z,79.5
2023-05-09T22:03:27.349Z,80.5
2023-05-09T22:13:33.480Z,81
2023-05-09T22:23:38.706Z,81
2023-05-09T22:33:44.833Z,81
2023-05-09T22:43:51.039Z,81
2023-05-09T22:53:57.229Z,81
2023-05-09T23:04:03.423Z,81
2023-05-09T23:14:09.629Z,81.5
2023-05-09T23:24:15.837Z,81.5
2023-05-09T23:34:22.038Z,81.5
2023-05-09T23:44:28.228Z,81.5
2023-05-09T23:54:34.428Z,82
